Time;durP1;ratioP1;P1;durP2;ratioP2;P2;SDS_P1;SDS_P2;PMS_P1;PMS_P2;Temp;Humidity;BMP_temperature;BMP_pressure;BME280_temperature;BME280_humidity;BME280_pressure;Samples;Min_cycle;Max_cycle;Signal;HPM_P1;HPM_P2
2022/10/24 00:00:58;;;;;;;11.32;2.75;;;18.00;70.80;;;;;;5001582;28;20529;-81
2022/10/24 00:03:24;;;;;;;11.52;2.40;;;18.00;70.50;;;;;;4983490;28;20449;-80
2022/10/24 00:05:50;;;;;;;9.73;2.45;;;18.00;70.50;;;;;;4984034;28;20034;-80
2022/10/24 00:08:17;;;;;;;6.72;2.10;;;18.00;70.30;;;;;;5001300;28;20038;-82
2022/10/24 00:10:47;;;;;;;7.40;2.75;;;17.90;70.20;;;;;;5002734;28;20026;-79
2022/10/24 00:13:15;;;;;;;6.72;2.15;;;17.90;70.20;;;;;;4992725;28;20389;-78
2022/10/24 00:15:48;;;;;;;9.27;2.30;;;17.90;70.00;;;;;;5001694;28;20042;-81
2022/10/24 00:18:16;;;;;;;10.60;2.90;;;17.90;69.70;;;;;;5004788;28;20057;-83
2022/10/24 00:20:42;;;;;;;9.90;2.58;;;17.90;69.90;;;;;;5004565;28;20033;-80
2022/10/24 00:23:08;;;;;;;9.20;2.78;;;17.80;70.00;;;;;;5003460;28;20224;-80
2022/10/24 00:25:35;;;;;;;8.20;2.63;;;17.80;69.90;;;;;;4985852;28;20056;-79
2022/10/24 00:28:01;;;;;;;7.72;2.35;;;17.80;70.00;;;;;;4987010;28;20105;-79
2022/10/24 00:30:26;;;;;;;8.68;2.63;;;17.70;69.90;;;;;;4986829;28;20699;-81
2022/10/24 00:32:52;;;;;;;7.05;2.60;;;17.70;70.30;;;;;;5002478;28;20065;-79
2022/10/24 00:35:18;;;;;;;8.90;2.28;;;17.60;70.40;;;;;;4986743;28;20061;-79
2022/10/24 00:37:43;;;;;;;10.73;2.80;;;17.60;70.50;;;;;;4987195;28;20037;-79
2022/10/24 00:40:14;;;;;;;11.80;2.65;;;17.60;70.50;;;;;;5005476;28;20466;-82
2022/10/24 00:42:40;;;;;;;7.35;2.40;;;17.60;70.50;;;;;;5020813;28;20524;-80
2022/10/24 00:45:33;;;;;;;11.32;2.65;;;17.60;70.40;;;;;;4989193;28;20038;-78
2022/10/24 00:47:59;;;;;;;9.48;2.75;;;17.70;70.40;;;;;;5003275;28;20442;-81
2022/10/24 00:50:24;;;;;;;11.23;3.13;;;17.70;70.40;;;;;;5004177;28;20045;-80
2022/10/24 00:52:50;;;;;;;8.50;2.55;;;17.70;70.20;;;;;;5003538;28;20074;-79
2022/10/24 00:55:16;;;;;;;11.20;3.78;;;17.70;70.10;;;;;;5002242;28;20318;-79
2022/10/24 00:57:54;;;;;;;6.90;2.25;;;17.70;70.00;;;;;;5003862;28;20486;-79
2022/10/24 01:00:24;;;;;;;9.88;3.60;;;17.60;70.20;;;;;;5006299;28;20457;-80
2022/10/24 01:02:50;;;;;;;8.25;2.45;;;17.60;70.30;;;;;;5002873;28;20034;-80
2022/10/24 01:05:17;;;;;;;10.63;2.70;;;17.60;70.20;;;;;;5002069;28;20071;-79
2022/10/24 01:07:57;;;;;;;8.38;2.38;;;17.60;70.50;;;;;;4990187;28;20037;-80
2022/10/24 01:10:34;;;;;;;9.55;2.75;;;17.50;70.40;;;;;;5001460;28;20048;-78
2022/10/24 01:13:08;;;;;;;11.68;2.42;;;17.50;70.70;;;;;;5004251;28;20111;-81
2022/10/24 01:15:46;;;;;;;8.30;2.30;;;17.50;70.60;;;;;;5000204;28;20033;-80
2022/10/24 01:18:13;;;;;;;8.18;2.13;;;17.50;70.70;;;;;;5003173;28;20038;-79
2022/10/24 01:21:01;;;;;;;10.00;2.67;;;17.40;70.90;;;;;;4986757;28;20038;-82
2022/10/24 01:23:51;;;;;;;9.75;2.33;;;17.30;71.10;;;;;;5001521;28;20472;-79
2022/10/24 01:26:39;;;;;;;8.52;2.45;;;17.30;70.90;;;;;;5004398;28;20123;-82
2022/10/24 01:29:13;;;;;;;7.82;2.03;;;17.30;70.70;;;;;;5001371;28;20041;-79
2022/10/24 01:31:43;;;;;;;7.75;1.95;;;17.30;70.50;;;;;;5001340;28;20532;-80
2022/10/24 01:34:19;;;;;;;6.63;1.80;;;17.40;70.10;;;;;;4985244;28;20034;-81
2022/10/24 01:36:56;;;;;;;8.10;1.88;;;17.30;69.90;;;;;;4983720;28;20030;-81
2022/10/24 01:39:27;;;;;;;8.60;2.00;;;17.30;70.10;;;;;;4997538;28;20267;-80
2022/10/24 01:41:56;;;;;;;10.50;2.00;;;17.30;69.90;;;;;;4987832;28;20052;-80
2022/10/24 01:44:30;;;;;;;13.38;2.28;;;17.20;70.10;;;;;;5002560;28;20393;-78
2022/10/24 01:47:11;;;;;;;4.43;1.42;;;17.20;70.00;;;;;;4997237;28;20419;-79
2022/10/24 01:49:39;;;;;;;9.90;1.80;;;17.10;70.00;;;;;;4987044;28;20080;-79
2022/10/24 01:52:09;;;;;;;8.23;2.22;;;17.10;69.70;;;;;;5001341;28;20117;-79
2022/10/24 01:54:37;;;;;;;10.20;2.20;;;17.10;69.60;;;;;;4991216;28;20025;-80
2022/10/24 01:57:04;;;;;;;10.10;2.38;;;17.10;69.50;;;;;;5017852;28;20614;-80
2022/10/24 01:59:29;;;;;;;9.32;1.80;;;17.20;69.20;;;;;;5018676;28;20042;-81
2022/10/24 02:02:07;;;;;;;10.15;2.00;;;17.20;69.10;;;;;;4987250;28;20045;-78
2022/10/24 02:04:35;;;;;;;10.07;2.13;;;17.20;68.80;;;;;;4998367;28;20521;-80
2022/10/24 02:07:03;;;;;;;11.77;2.45;;;17.20;68.60;;;;;;4987298;28;20057;-80
2022/10/24 02:09:29;;;;;;;7.80;1.90;;;17.20;68.50;;;;;;5001602;28;20025;-80
2022/10/24 02:11:57;;;;;;;10.80;2.58;;;17.30;68.50;;;;;;4986531;28;20378;-78
2022/10/24 02:14:32;;;;;;;10.38;2.50;;;17.30;68.60;;;;;;4999049;28;20034;-79
2022/10/24 02:16:58;;;;;;;8.60;1.77;;;17.30;68.70;;;;;;5003382;28;20347;-80
2022/10/24 02:19:24;;;;;;;13.13;3.05;;;17.20;69.00;;;;;;5001485;28;20037;-78
2022/10/24 02:22:22;;;;;;;12.45;2.10;;;17.10;69.60;;;;;;4987257;28;20034;-79
2022/10/24 02:25:04;;;;;;;11.07;2.40;;;17.10;69.90;;;;;;4966044;28;20041;-80
2022/10/24 02:27:40;;;;;;;9.38;1.95;;;17.00;70.40;;;;;;4986375;28;20034;-80
2022/10/24 02:30:18;;;;;;;9.07;1.95;;;17.00;70.70;;;;;;4994943;28;20109;-83
2022/10/24 02:32:49;;;;;;;8.52;1.98;;;17.00;71.00;;;;;;5000678;28;20041;-82
2022/10/24 02:35:17;;;;;;;12.40;2.28;;;17.00;71.20;;;;;;4998811;28;20072;-83
2022/10/24 02:37:47;;;;;;;8.48;2.20;;;17.00;71.50;;;;;;4988926;28;20410;-80
2022/10/24 02:40:15;;;;;;;11.35;2.20;;;17.00;71.50;;;;;;5000892;28;20473;-79
2022/10/24 02:42:43;;;;;;;11.73;2.60;;;16.90;71.70;;;;;;4987934;28;20046;-81
2022/10/24 02:45:11;;;;;;;10.43;2.67;;;16.80;71.80;;;;;;4997021;28;20431;-80
2022/10/24 02:47:39;;;;;;;11.88;2.72;;;16.80;71.80;;;;;;4982742;28;20026;-81
2022/10/24 02:50:05;;;;;;;10.13;2.67;;;16.80;72.10;;;;;;4998278;28;20030;-82
2022/10/24 02:52:32;;;;;;;13.65;2.72;;;16.80;72.20;;;;;;5003705;28;20671;-81
2022/10/24 02:54:57;;;;;;;11.63;2.00;;;16.80;72.10;;;;;;5000489;28;20145;-81
2022/10/24 02:57:25;;;;;;;9.05;2.10;;;16.70;72.20;;;;;;5001523;28;20045;-81
2022/10/24 02:59:51;;;;;;;11.30;2.33;;;16.70;72.30;;;;;;4998016;28;20034;-78
2022/10/24 03:02:17;;;;;;;13.57;2.88;;;16.80;72.30;;;;;;4996598;28;20748;-80
2022/10/24 03:04:42;;;;;;;10.00;2.28;;;16.80;72.20;;;;;;5001490;28;20046;-79
2022/10/24 03:07:08;;;;;;;11.55;2.33;;;16.90;71.90;;;;;;4997643;28;20028;-78
2022/10/24 03:09:34;;;;;;;13.27;2.20;;;16.90;71.80;;;;;;5001463;28;20424;-78
2022/10/24 03:11:59;;;;;;;8.93;1.75;;;16.90;71.70;;;;;;5002618;28;20042;-78
2022/10/24 03:14:25;;;;;;;12.48;2.33;;;16.90;71.90;;;;;;5016676;28;20426;-83
2022/10/24 03:16:51;;;;;;;8.85;2.20;;;16.90;71.80;;;;;;5011596;28;20038;-80
2022/10/24 03:19:16;;;;;;;10.10;2.47;;;16.80;71.70;;;;;;5000651;28;20050;-81
2022/10/24 03:21:42;;;;;;;9.68;1.77;;;16.90;71.80;;;;;;5004280;28;20038;-82
2022/10/24 03:24:08;;;;;;;11.18;2.28;;;16.90;71.80;;;;;;5001119;28;20089;-78
2022/10/24 03:26:34;;;;;;;11.38;2.47;;;16.90;71.90;;;;;;5001987;28;20069;-79
2022/10/24 03:28:59;;;;;;;14.13;2.17;;;16.90;71.70;;;;;;4983084;28;20117;-78
2022/10/24 03:31:25;;;;;;;9.55;2.00;;;17.00;71.70;;;;;;5000843;28;20160;-78
2022/10/24 03:33:51;;;;;;;9.65;2.20;;;17.00;71.70;;;;;;5000894;28;20037;-81
2022/10/24 03:36:17;;;;;;;8.80;2.20;;;17.00;71.90;;;;;;4983879;28;20041;-83
2022/10/24 03:38:42;;;;;;;10.20;1.80;;;17.00;71.80;;;;;;4999285;28;20478;-79
2022/10/24 03:41:08;;;;;;;12.88;3.22;;;17.00;71.90;;;;;;5000716;28;20521;-80
2022/10/24 03:43:34;;;;;;;9.85;1.92;;;17.00;72.00;;;;;;5002485;28;20124;-79
2022/10/24 03:45:59;;;;;;;10.68;2.22;;;17.10;72.00;;;;;;4987869;28;20024;-81
2022/10/24 03:48:26;;;;;;;12.30;2.08;;;17.10;72.10;;;;;;4999411;28;20037;-79
2022/10/24 03:50:52;;;;;;;11.20;2.30;;;17.00;72.00;;;;;;4993409;28;20034;-83
2022/10/24 03:53:17;;;;;;;12.60;3.13;;;17.10;72.10;;;;;;4984401;28;20373;-80
2022/10/24 03:55:43;;;;;;;11.35;2.40;;;17.00;72.40;;;;;;5002475;28;20088;-78
2022/10/24 03:58:08;;;;;;;12.63;2.75;;;17.00;72.40;;;;;;4982254;28;20061;-80
2022/10/24 04:00:39;;;;;;;9.77;2.25;;;17.00;72.40;;;;;;5000752;28;20132;-79
2022/10/24 04:03:05;;;;;;;10.35;2.15;;;17.00;72.60;;;;;;4998257;28;20037;-79
2022/10/24 04:05:31;;;;;;;9.30;2.25;;;17.00;72.70;;;;;;5000807;28;20027;-80
2022/10/24 04:07:57;;;;;;;11.10;2.50;;;16.90;72.80;;;;;;5000540;28;20116;-78
2022/10/24 04:10:22;;;;;;;11.57;2.13;;;17.00;72.90;;;;;;4995921;28;20520;-78
2022/10/24 04:12:48;;;;;;;9.95;1.80;;;17.00;73.00;;;;;;5001566;28;20053;-81
2022/10/24 04:15:14;;;;;;;13.40;2.38;;;17.10;72.90;;;;;;4997785;28;20049;-79
2022/10/24 04:17:39;;;;;;;11.88;2.50;;;17.10;72.90;;;;;;5000092;28;20053;-77
2022/10/24 04:20:06;;;;;;;8.63;2.05;;;17.10;72.90;;;;;;4985367;28;20113;-78
2022/10/24 04:22:31;;;;;;;11.85;2.38;;;17.00;72.90;;;;;;4994381;28;20049;-82
2022/10/24 04:24:57;;;;;;;8.20;2.03;;;17.00;72.90;;;;;;4989665;28;20034;-81
2022/10/24 04:27:23;;;;;;;12.68;2.60;;;17.00;72.90;;;;;;4987302;28;20402;-77
2022/10/24 04:29:48;;;;;;;13.43;3.20;;;17.00;73.20;;;;;;4999275;28;20022;-79
2022/10/24 04:32:14;;;;;;;12.93;3.25;;;16.90;73.10;;;;;;5012026;28;20088;-83
2022/10/24 04:34:39;;;;;;;11.98;2.53;;;17.00;73.20;;;;;;4978861;28;20382;-78
2022/10/24 04:37:05;;;;;;;10.55;2.20;;;16.90;73.20;;;;;;4977268;28;20145;-82
2022/10/24 04:39:31;;;;;;;15.00;2.40;;;16.90;73.40;;;;;;4979312;28;20046;-78
2022/10/24 04:41:56;;;;;;;10.55;2.33;;;16.90;73.40;;;;;;4992530;28;20034;-77
2022/10/24 04:44:22;;;;;;;11.68;2.47;;;16.80;73.60;;;;;;4990006;28;20120;-81
2022/10/24 04:46:49;;;;;;;13.02;3.25;;;16.90;73.60;;;;;;4992633;28;20038;-79
2022/10/24 04:49:15;;;;;;;15.00;2.55;;;16.90;73.80;;;;;;4989544;28;20029;-80
2022/10/24 04:51:41;;;;;;;13.73;2.28;;;16.90;73.70;;;;;;4990714;28;20041;-79
2022/10/24 04:54:07;;;;;;;7.15;2.53;;;16.90;73.80;;;;;;4987472;28;20034;-80
2022/10/24 04:56:33;;;;;;;10.35;2.47;;;16.90;73.90;;;;;;4978946;28;20042;-76
2022/10/24 04:58:58;;;;;;;12.25;2.63;;;16.90;74.00;;;;;;4992058;28;20277;-77
2022/10/24 05:01:24;;;;;;;13.25;2.30;;;16.90;74.10;;;;;;4993717;28;20042;-81
2022/10/24 05:03:49;;;;;;;12.13;2.85;;;16.90;74.10;;;;;;4996031;28;20429;-80
2022/10/24 05:06:15;;;;;;;10.95;2.50;;;16.90;74.30;;;;;;5001977;28;20081;-81
2022/10/24 05:08:41;;;;;;;12.05;2.28;;;16.90;74.40;;;;;;4993230;28;20104;-81
2022/10/24 05:11:08;;;;;;;13.32;2.78;;;16.90;74.40;;;;;;4995768;28;20026;-79
2022/10/24 05:13:34;;;;;;;15.65;2.97;;;16.90;74.50;;;;;;4992737;28;20363;-78
2022/10/24 05:16:00;;;;;;;12.80;2.60;;;16.90;74.60;;;;;;4994384;28;20526;-79
2022/10/24 05:18:26;;;;;;;17.13;2.47;;;16.90;74.50;;;;;;4992641;28;20030;-79
2022/10/24 05:20:56;;;;;;;12.93;2.78;;;16.80;74.70;;;;;;4989579;28;20042;-81
2022/10/24 05:23:22;;;;;;;10.50;2.30;;;16.80;74.60;;;;;;4993107;28;20046;-77
2022/10/24 05:25:47;;;;;;;14.93;2.75;;;16.80;74.80;;;;;;4990134;28;20081;-78
2022/10/24 05:28:13;;;;;;;15.00;3.15;;;16.80;74.80;;;;;;4990803;28;20373;-82
2022/10/24 05:30:39;;;;;;;14.02;2.80;;;16.80;74.90;;;;;;4982651;28;20033;-79
2022/10/24 05:33:04;;;;;;;11.63;2.47;;;16.80;75.10;;;;;;4997789;28;20041;-78
2022/10/24 05:35:30;;;;;;;11.88;3.35;;;16.70;75.10;;;;;;5000079;28;20029;-80
2022/10/24 05:37:55;;;;;;;9.68;2.47;;;16.70;75.30;;;;;;4994430;28;20030;-78
2022/10/24 05:40:21;;;;;;;13.65;2.17;;;16.60;75.80;;;;;;4997706;28;20394;-80
2022/10/24 05:42:47;;;;;;;13.02;2.70;;;16.60;76.10;;;;;;4998501;28;20049;-84
2022/10/24 05:45:13;;;;;;;8.10;2.08;;;16.60;76.60;;;;;;4983405;28;20045;-78
2022/10/24 05:47:38;;;;;;;12.35;2.88;;;16.50;76.90;;;;;;5014332;28;20033;-80
2022/10/24 05:50:05;;;;;;;11.00;2.55;;;16.40;77.20;;;;;;4998261;28;20026;-78
2022/10/24 05:52:31;;;;;;;12.65;3.15;;;16.30;77.80;;;;;;4991515;28;20044;-80
2022/10/24 05:54:57;;;;;;;13.23;2.60;;;16.30;78.20;;;;;;4982070;28;20026;-76
2022/10/24 05:57:22;;;;;;;11.15;2.15;;;16.30;78.40;;;;;;4981949;28;20545;-78
2022/10/24 05:59:48;;;;;;;14.57;2.40;;;16.20;78.80;;;;;;4982274;28;20483;-81
2022/10/24 06:02:20;;;;;;;12.80;2.63;;;16.20;79.00;;;;;;4994859;28;20592;-83
2022/10/24 06:04:47;;;;;;;11.13;2.15;;;16.20;79.20;;;;;;4976350;28;20124;-78
2022/10/24 06:07:13;;;;;;;15.57;2.50;;;16.20;79.30;;;;;;4994229;28;20069;-79
2022/10/24 06:09:40;;;;;;;11.18;2.88;;;16.10;79.50;;;;;;4997430;28;20030;-76
2022/10/24 06:12:07;;;;;;;12.27;2.50;;;16.10;79.60;;;;;;4985991;28;20133;-78
2022/10/24 06:14:33;;;;;;;13.70;3.03;;;16.10;79.80;;;;;;5001122;28;20120;-74
2022/10/24 06:16:59;;;;;;;9.68;2.47;;;16.10;80.00;;;;;;5000951;28;20374;-75
2022/10/24 06:19:27;;;;;;;14.60;3.33;;;16.10;80.10;;;;;;4997206;28;20087;-76
2022/10/24 06:21:53;;;;;;;13.30;2.67;;;16.10;79.80;;;;;;5001685;28;20125;-75
2022/10/24 06:24:18;;;;;;;13.40;2.58;;;16.10;79.80;;;;;;4998656;28;21431;-75
2022/10/24 06:26:44;;;;;;;10.57;2.90;;;16.10;79.80;;;;;;5001476;28;20033;-75
2022/10/24 06:29:10;;;;;;;11.68;2.55;;;16.10;80.00;;;;;;5000000;28;20026;-75
2022/10/24 06:31:37;;;;;;;14.50;3.38;;;16.10;80.10;;;;;;4986568;28;20049;-74
2022/10/24 06:34:02;;;;;;;11.73;2.47;;;16.10;80.00;;;;;;5000102;28;20033;-74
2022/10/24 06:36:28;;;;;;;12.68;2.55;;;16.10;80.00;;;;;;5004479;28;20052;-76
2022/10/24 06:38:54;;;;;;;14.98;2.83;;;16.20;79.70;;;;;;4998992;28;20137;-76
2022/10/24 06:41:19;;;;;;;16.10;2.50;;;16.10;79.40;;;;;;4996700;28;20164;-75
2022/10/24 06:43:45;;;;;;;17.52;4.47;;;16.10;79.00;;;;;;4992764;28;20061;-75
2022/10/24 06:46:13;;;;;;;14.32;2.35;;;16.10;78.80;;;;;;4985788;28;20136;-75
2022/10/24 06:48:39;;;;;;;12.50;2.50;;;16.10;78.50;;;;;;4993297;28;20030;-75
2022/10/24 06:51:05;;;;;;;11.15;2.72;;;16.10;78.30;;;;;;4974446;28;20027;-74
2022/10/24 06:53:31;;;;;;;10.35;2.45;;;16.10;78.00;;;;;;4995513;28;20121;-74
2022/10/24 06:56:01;;;;;;;13.15;2.35;;;16.20;77.60;;;;;;4993766;28;20077;-74
2022/10/24 06:58:35;;;;;;;8.77;2.13;;;16.20;77.30;;;;;;4996130;28;20134;-74
2022/10/24 07:01:11;;;;;;;11.88;2.72;;;16.30;77.00;;;;;;4995557;28;20061;-75
2022/10/24 07:03:37;;;;;;;9.35;2.17;;;16.20;76.60;;;;;;4998767;28;20557;-74
2022/10/24 07:06:13;;;;;;;8.45;2.10;;;16.20;76.30;;;;;;4978929;28;20263;-74
2022/10/24 07:08:39;;;;;;;11.88;2.45;;;16.20;76.30;;;;;;4991976;28;20069;-74
2022/10/24 07:11:05;;;;;;;9.60;2.50;;;16.20;76.50;;;;;;4987478;28;20062;-75
2022/10/24 07:13:30;;;;;;;13.95;2.20;;;16.20;76.70;;;;;;4992226;28;20053;-74
2022/10/24 07:15:56;;;;;;;8.85;2.35;;;16.30;76.60;;;;;;5000843;28;20049;-74
2022/10/24 07:18:22;;;;;;;8.90;2.20;;;16.40;76.30;;;;;;5001134;28;20042;-77
2022/10/24 07:20:47;;;;;;;10.75;1.98;;;16.40;75.90;;;;;;4994611;28;20042;-75
2022/10/24 07:23:14;;;;;;;10.93;2.78;;;16.40;75.40;;;;;;4994272;28;20034;-75
2022/10/24 07:25:40;;;;;;;8.77;2.38;;;16.50;75.10;;;;;;5008783;28;20078;-74
2022/10/24 07:28:07;;;;;;;8.90;2.13;;;16.50;74.80;;;;;;4999779;28;20022;-76
2022/10/24 07:30:33;;;;;;;9.20;2.25;;;16.50;74.70;;;;;;4999927;28;20161;-76
2022/10/24 07:32:59;;;;;;;6.38;1.80;;;16.50;75.00;;;;;;4996725;28;20406;-75
2022/10/24 07:35:25;;;;;;;10.68;2.42;;;16.60;75.00;;;;;;4995601;28;20026;-77
2022/10/24 07:37:52;;;;;;;9.20;2.00;;;16.60;74.80;;;;;;4983157;28;20466;-77
2022/10/24 07:40:18;;;;;;;11.27;2.80;;;16.60;74.30;;;;;;4997305;28;20069;-77
2022/10/24 07:42:44;;;;;;;10.80;2.22;;;16.60;74.20;;;;;;4997945;28;20196;-76
2022/10/24 07:45:10;;;;;;;10.25;2.22;;;16.70;73.30;;;;;;4993050;28;20113;-77
2022/10/24 07:47:35;;;;;;;10.35;2.30;;;16.70;73.10;;;;;;5001783;28;20357;-76
2022/10/24 07:50:01;;;;;;;12.23;2.78;;;16.70;73.20;;;;;;4983277;28;20425;-76
2022/10/24 07:52:27;;;;;;;10.00;2.38;;;16.70;73.20;;;;;;5000066;28;20058;-77
2022/10/24 07:54:53;;;;;;;9.73;2.13;;;16.70;73.10;;;;;;5000526;28;20030;-76
2022/10/24 07:57:19;;;;;;;10.85;2.20;;;16.80;73.40;;;;;;4998714;28;20350;-77
2022/10/24 07:59:45;;;;;;;6.65;2.42;;;16.80;73.40;;;;;;5000028;28;20029;-75
2022/10/24 08:02:12;;;;;;;10.60;2.38;;;16.80;73.00;;;;;;4980702;28;20536;-75
2022/10/24 08:04:38;;;;;;;7.97;2.40;;;16.80;73.00;;;;;;4982068;28;20371;-76
2022/10/24 08:07:07;;;;;;;8.18;2.08;;;16.90;73.00;;;;;;4968300;28;20781;-75
2022/10/24 08:09:37;;;;;;;9.15;2.40;;;16.90;72.50;;;;;;4987159;28;20045;-77
2022/10/24 08:12:03;;;;;;;11.65;3.38;;;16.80;72.30;;;;;;4987952;28;20049;-79
2022/10/24 08:14:29;;;;;;;9.57;2.42;;;16.80;72.30;;;;;;4969029;28;20716;-76
2022/10/24 08:16:54;;;;;;;9.18;2.63;;;16.90;72.30;;;;;;4960076;28;20035;-79
2022/10/24 08:19:20;;;;;;;11.02;2.45;;;17.00;72.20;;;;;;4985122;28;20060;-78
2022/10/24 08:21:46;;;;;;;14.93;2.85;;;17.10;72.30;;;;;;4994956;28;20069;-77
2022/10/24 08:24:11;;;;;;;15.93;3.00;;;17.00;72.00;;;;;;4987503;28;20223;-78
2022/10/24 08:26:40;;;;;;;10.30;2.58;;;17.10;72.00;;;;;;4986400;28;20049;-79
2022/10/24 08:29:10;;;;;;;11.30;2.67;;;17.10;71.30;;;;;;4987678;28;20316;-78
2022/10/24 08:31:36;;;;;;;15.45;2.60;;;17.10;71.10;;;;;;4987119;28;20026;-74
2022/10/24 08:34:04;;;;;;;9.20;2.17;;;17.10;71.30;;;;;;4992006;28;20037;-81
2022/10/24 08:36:32;;;;;;;12.13;2.70;;;17.20;71.10;;;;;;4991789;28;20036;-77
2022/10/24 08:38:58;;;;;;;10.20;3.10;;;17.30;71.00;;;;;;4993319;28;20050;-78
2022/10/24 08:41:27;;;;;;;11.52;2.28;;;17.30;70.60;;;;;;4992695;28;20026;-78
2022/10/24 08:43:54;;;;;;;10.43;2.53;;;17.30;70.70;;;;;;4976096;28;20096;-75
2022/10/24 08:46:49;;;;;;;10.50;2.25;;;17.20;70.80;;;;;;4989960;28;20125;-79
2022/10/24 08:49:24;;;;;;;13.02;2.50;;;17.20;70.70;;;;;;4989140;28;20066;-78
2022/10/24 08:52:00;;;;;;;9.90;2.35;;;17.20;70.50;;;;;;4986681;28;20549;-76
2022/10/24 08:54:40;;;;;;;11.25;3.05;;;17.20;70.40;;;;;;4988874;28;20319;-79
2022/10/24 08:57:12;;;;;;;7.88;2.72;;;17.20;70.70;;;;;;4991370;28;20060;-74
2022/10/24 08:59:37;;;;;;;8.80;2.30;;;17.20;70.80;;;;;;4989139;28;20429;-80
2022/10/24 09:02:23;;;;;;;9.00;2.13;;;17.10;70.00;;;;;;4994459;28;20041;-78
2022/10/24 09:05:14;;;;;;;9.27;2.30;;;17.10;70.20;;;;;;4988868;28;20373;-79
2022/10/24 09:07:44;;;;;;;11.32;2.92;;;17.10;69.90;;;;;;4992764;28;20030;-75
2022/10/24 09:10:18;;;;;;;8.40;2.22;;;17.20;69.40;;;;;;4985730;28;20466;-80
2022/10/24 09:12:43;;;;;;;10.20;2.15;;;17.20;69.20;;;;;;4981925;28;20038;-79
2022/10/24 09:15:27;;;;;;;12.52;2.53;;;17.10;69.20;;;;;;4984618;28;20057;-75
2022/10/24 09:17:55;;;;;;;16.48;3.10;;;17.20;69.30;;;;;;4993650;28;20240;-77
2022/10/24 09:20:26;;;;;;;10.05;2.50;;;17.20;69.20;;;;;;4980918;28;20100;-77
2022/10/24 09:22:58;;;;;;;11.75;2.75;;;17.30;69.20;;;;;;4995924;28;20038;-78
2022/10/24 09:25:34;;;;;;;9.27;2.03;;;17.30;68.90;;;;;;4996918;28;20416;-78
2022/10/24 09:28:02;;;;;;;10.85;2.05;;;17.30;68.80;;;;;;4987107;28;20113;-79
2022/10/24 09:30:28;;;;;;;11.70;2.70;;;17.30;69.10;;;;;;4995244;28;20098;-77
2022/10/24 09:32:56;;;;;;;8.80;2.72;;;17.30;68.90;;;;;;4979829;28;20077;-79
2022/10/24 09:35:27;;;;;;;8.80;1.90;;;17.40;69.10;;;;;;4992122;28;20239;-77
2022/10/24 09:37:54;;;;;;;9.43;2.00;;;17.50;68.80;;;;;;5011497;28;20076;-78
2022/10/24 09:40:31;;;;;;;8.65;2.08;;;17.60;69.10;;;;;;5002980;28;20282;-78
2022/10/24 09:43:14;;;;;;;10.57;2.63;;;17.70;69.00;;;;;;4992895;28;20030;-80
2022/10/24 09:45:45;;;;;;;9.27;2.17;;;17.80;68.70;;;;;;4995064;28;20029;-81
2022/10/24 09:49:01;;;;;;;8.88;2.22;;;17.80;68.50;;;;;;4980531;28;20030;-76
2022/10/24 09:51:48;;;;;;;11.07;2.20;;;17.90;68.00;;;;;;4941320;28;20031;-80
2022/10/24 09:54:20;;;;;;;8.57;2.20;;;17.90;68.20;;;;;;4944410;28;20576;-78
2022/10/24 09:56:45;;;;;;;7.82;2.00;;;18.30;68.00;;;;;;4985291;28;20418;-78
2022/10/24 09:59:29;;;;;;;8.88;2.00;;;18.60;66.90;;;;;;4995419;28;20038;-76
2022/10/24 10:02:13;;;;;;;8.07;2.08;;;18.60;65.50;;;;;;4997215;28;20363;-81
2022/10/24 10:04:40;;;;;;;9.35;2.05;;;18.60;66.10;;;;;;4996553;28;20081;-78
2022/10/24 10:07:15;;;;;;;8.90;2.00;;;18.60;66.20;;;;;;4994907;28;20514;-76
2022/10/24 10:09:56;;;;;;;9.40;2.60;;;18.50;65.20;;;;;;4997926;28;20036;-79
2022/10/24 10:12:56;;;;;;;10.88;2.78;;;18.80;64.60;;;;;;4976934;28;20401;-77
2022/10/24 10:15:35;;;;;;;9.25;2.05;;;19.00;64.00;;;;;;4993022;28;20454;-76
2022/10/24 10:18:19;;;;;;;10.45;2.25;;;19.30;62.90;;;;;;4980681;28;20443;-79
2022/10/24 10:20:55;;;;;;;;;;;19.50;62.80;;;;;;4979547;28;20417;-80
2022/10/24 10:23:31;;;;;;;11.60;2.47;;;19.60;62.40;;;;;;4997507;28;19921;-78
2022/10/24 10:26:18;;;;;;;9.10;2.20;;;19.60;62.10;;;;;;4994971;28;20451;-76
2022/10/24 10:29:05;;;;;;;9.35;2.22;;;19.70;62.10;;;;;;4994515;28;20042;-77
2022/10/24 10:31:34;;;;;;;11.18;2.30;;;19.70;61.60;;;;;;4992997;28;20038;-77
2022/10/24 10:34:21;;;;;;;10.98;2.65;;;20.00;61.70;;;;;;4996271;28;20124;-78
2022/10/24 10:37:06;;;;;;;9.02;2.20;;;20.10;61.20;;;;;;4987067;28;20042;-79
2022/10/24 10:39:53;;;;;;;10.30;2.22;;;20.00;60.20;;;;;;4986815;28;20172;-80
2022/10/24 10:42:26;;;;;;;10.43;2.60;;;20.10;60.30;;;;;;4971552;28;20041;-79
2022/10/24 10:44:54;;;;;;;10.35;1.70;;;20.10;60.20;;;;;;4986523;28;20458;-74
2022/10/24 10:47:50;;;;;;;9.40;1.90;;;19.80;60.00;;;;;;4987326;28;20121;-76
2022/10/24 10:50:46;;;;;;;11.50;2.15;;;19.70;60.10;;;;;;4986816;28;20114;-75
2022/10/24 10:53:39;;;;;;;9.40;1.95;;;19.50;60.50;;;;;;4972095;28;20041;-77
2022/10/24 10:56:41;;;;;;;9.25;2.08;;;19.30;60.70;;;;;;4984336;28;20033;-75
2022/10/24 10:59:36;;;;;;;12.40;2.50;;;19.10;61.50;;;;;;4981604;28;20049;-78
2022/10/24 11:02:31;;;;;;;11.10;2.00;;;19.10;62.70;;;;;;4995942;28;20034;-77
2022/10/24 11:05:01;;;;;;;;;;;19.20;61.80;;;;;;4984877;28;20034;-76
2022/10/24 11:07:43;;;;;;;8.65;2.15;;;19.10;62.10;;;;;;4985922;28;19928;-76
2022/10/24 11:10:14;;;;;;;8.40;1.83;;;19.00;62.50;;;;;;4965661;28;20419;-77
2022/10/24 11:12:42;;;;;;;7.85;2.05;;;19.00;62.90;;;;;;4989333;28;20062;-77
2022/10/24 11:15:23;;;;;;;9.32;2.35;;;18.90;62.90;;;;;;4985459;28;20532;-77
2022/10/24 11:18:07;;;;;;;12.07;2.33;;;18.90;63.60;;;;;;4988774;28;20044;-75
2022/10/24 11:20:38;;;;;;;9.43;2.10;;;18.80;63.30;;;;;;4985534;28;20042;-77
2022/10/24 11:23:20;;;;;;;9.65;1.70;;;18.80;63.50;;;;;;4984264;28;20034;-77
2022/10/24 11:26:09;;;;;;;8.85;1.77;;;19.10;63.80;;;;;;4986845;28;20038;-76
2022/10/24 11:29:00;;;;;;;7.78;1.67;;;19.50;62.50;;;;;;4983548;28;20351;-77
2022/10/24 11:31:35;;;;;;;7.32;1.92;;;20.00;61.70;;;;;;4984972;28;20084;-79
2022/10/24 11:34:04;;;;;;;8.38;1.80;;;20.20;60.20;;;;;;4984982;28;20042;-77
2022/10/24 11:36:54;;;;;;;11.80;2.50;;;20.30;59.90;;;;;;4973344;28;20034;-78
2022/10/24 11:39:31;;;;;;;8.45;2.28;;;20.40;60.30;;;;;;4987015;28;20224;-78
2022/10/24 11:42:19;;;;;;;10.52;2.15;;;20.50;59.30;;;;;;4988663;28;20502;-78
2022/10/24 11:44:48;;;;;;;9.32;1.80;;;20.40;59.10;;;;;;4972979;28;20058;-79
2022/10/24 11:47:23;;;;;;;12.32;2.65;;;20.30;59.00;;;;;;4996528;28;20490;-78
2022/10/24 11:50:23;;;;;;;7.90;1.95;;;20.00;59.30;;;;;;4996276;28;20056;-75
2022/10/24 11:52:55;;;;;;;7.05;2.00;;;20.10;58.60;;;;;;4993296;28;20030;-76
2022/10/24 11:55:37;;;;;;;13.25;2.22;;;20.00;59.00;;;;;;4988800;28;20133;-76
2022/10/24 11:58:09;;;;;;;11.77;2.40;;;20.00;58.70;;;;;;4988758;28;20054;-78
2022/10/24 12:01:13;;;;;;;11.48;2.35;;;19.70;58.90;;;;;;4985874;28;20129;-77
2022/10/24 12:03:51;;;;;;;8.25;2.53;;;19.50;60.60;;;;;;4990980;28;20033;-80
2022/10/24 12:06:44;;;;;;;7.93;2.03;;;19.40;60.80;;;;;;4987933;28;20037;-77
2022/10/24 12:09:25;;;;;;;10.30;2.08;;;19.50;61.40;;;;;;4994478;28;20482;-79
2022/10/24 12:12:17;;;;;;;8.27;2.00;;;19.40;60.90;;;;;;4995521;28;20018;-78
2022/10/24 12:14:49;;;;;;;7.85;2.00;;;19.30;59.90;;;;;;4981891;28;20030;-76
2022/10/24 12:17:36;;;;;;;6.13;1.77;;;19.60;60.30;;;;;;4995292;28;20034;-76
2022/10/24 12:20:10;;;;;;;7.70;1.90;;;20.00;57.90;;;;;;4985634;28;20041;-74
2022/10/24 12:22:39;;;;;;;8.57;2.03;;;20.10;58.20;;;;;;4996271;28;20117;-74
2022/10/24 12:25:32;;;;;;;8.60;2.30;;;20.20;57.20;;;;;;4997044;28;20041;-78
2022/10/24 12:28:03;;;;;;;9.80;2.38;;;20.10;57.70;;;;;;5000628;28;20148;-75
2022/10/24 12:30:33;;;;;;;8.40;1.70;;;20.30;58.00;;;;;;4997802;28;20036;-75
2022/10/24 12:33:22;;;;;;;7.55;1.70;;;20.40;57.70;;;;;;4998213;28;20058;-79
2022/10/24 12:35:51;;;;;;;9.80;2.60;;;20.20;56.70;;;;;;4993921;28;20782;-77
2022/10/24 12:38:26;;;;;;;9.38;2.20;;;19.90;58.50;;;;;;4992768;28;20382;-74
2022/10/24 12:41:10;;;;;;;9.73;2.00;;;20.10;58.40;;;;;;4995727;28;20073;-76
2022/10/24 12:43:43;;;;;;;9.15;1.90;;;19.90;58.70;;;;;;4998901;28;20036;-76
2022/10/24 12:46:35;;;;;;;9.05;2.28;;;19.60;60.00;;;;;;4998574;28;20075;-76
2022/10/24 12:49:01;;;;;;;9.57;1.70;;;19.70;59.80;;;;;;4991437;28;20037;-78
2022/10/24 12:51:39;;;;;;;7.28;1.80;;;19.90;59.60;;;;;;4995336;28;20406;-77
2022/10/24 12:54:11;;;;;;;8.20;2.38;;;20.00;60.00;;;;;;4996820;28;20044;-78
2022/10/24 12:56:49;;;;;;;9.77;2.20;;;20.00;58.40;;;;;;5003648;28;20046;-77
2022/10/24 12:59:44;;;;;;;9.82;2.03;;;20.20;58.50;;;;;;4994665;28;20100;-77
2022/10/24 13:02:10;;;;;;;7.40;2.10;;;20.30;58.10;;;;;;5008670;28;20433;-78
2022/10/24 13:04:53;;;;;;;7.05;1.88;;;20.10;58.00;;;;;;5006516;28;20030;-75